sensor_id;sensor_type;location;lat;lon;timestamp;temperature;humidity
4584;DHT22;2304;47.606;12.186;2024-01-30T00:01:48;4.30;59.60
4584;DHT22;2304;47.606;12.186;2024-01-30T00:06:51;4.30;60.30
4584;DHT22;2304;47.606;12.186;2024-01-30T00:11:54;4.20;60.00
4584;DHT22;2304;47.606;12.186;2024-01-30T00:16:56;4.20;60.00
4584;DHT22;2304;47.606;12.186;2024-01-30T00:21:58;4.10;59.80
4584;DHT22;2304;47.606;12.186;2024-01-30T00:27:01;4.10;59.50
4584;DHT22;2304;47.606;12.186;2024-01-30T00:32:04;4.10;59.30
4584;DHT22;2304;47.606;12.186;2024-01-30T00:37:06;4.00;59.70
4584;DHT22;2304;47.606;12.186;2024-01-30T00:42:09;4.00;59.90
4584;DHT22;2304;47.606;12.186;2024-01-30T00:47:11;4.00;60.20
4584;DHT22;2304;47.606;12.186;2024-01-30T00:52:13;3.90;60.10
4584;DHT22;2304;47.606;12.186;2024-01-30T00:57:16;4.00;59.90
4584;DHT22;2304;47.606;12.186;2024-01-30T01:02:18;4.00;59.60
4584;DHT22;2304;47.606;12.186;2024-01-30T01:07:20;4.10;59.60
4584;DHT22;2304;47.606;12.186;2024-01-30T01:12:23;3.90;59.40
4584;DHT22;2304;47.606;12.186;2024-01-30T01:17:25;3.90;60.10
4584;DHT22;2304;47.606;12.186;2024-01-30T01:22:27;3.90;60.20
4584;DHT22;2304;47.606;12.186;2024-01-30T01:27:31;3.80;60.30
4584;DHT22;2304;47.606;12.186;2024-01-30T01:32:33;3.40;60.50
4584;DHT22;2304;47.606;12.186;2024-01-30T01:37:35;3.70;62.00
4584;DHT22;2304;47.606;12.186;2024-01-30T01:42:39;3.70;62.10
4584;DHT22;2304;47.606;12.186;2024-01-30T01:47:41;3.60;62.00
4584;DHT22;2304;47.606;12.186;2024-01-30T01:52:43;3.60;62.80
4584;DHT22;2304;47.606;12.186;2024-01-30T01:57:46;3.60;62.30
4584;DHT22;2304;47.606;12.186;2024-01-30T02:02:49;3.80;61.90
4584;DHT22;2304;47.606;12.186;2024-01-30T02:07:52;3.60;61.60
4584;DHT22;2304;47.606;12.186;2024-01-30T02:12:55;3.60;61.50
4584;DHT22;2304;47.606;12.186;2024-01-30T02:17:57;3.60;61.40
4584;DHT22;2304;47.606;12.186;2024-01-30T02:23:01;3.50;60.70
4584;DHT22;2304;47.606;12.186;2024-01-30T02:28:04;3.40;61.20
4584;DHT22;2304;47.606;12.186;2024-01-30T02:33:06;3.40;61.20
4584;DHT22;2304;47.606;12.186;2024-01-30T02:38:09;3.50;61.00
4584;DHT22;2304;47.606;12.186;2024-01-30T02:43:11;3.40;60.90
4584;DHT22;2304;47.606;12.186;2024-01-30T02:48:12;3.40;60.70
4584;DHT22;2304;47.606;12.186;2024-01-30T02:53:16;3.40;61.40
4584;DHT22;2304;47.606;12.186;2024-01-30T02:58:17;3.40;61.20
4584;DHT22;2304;47.606;12.186;2024-01-30T03:03:19;3.30;61.10
4584;DHT22;2304;47.606;12.186;2024-01-30T03:08:22;3.30;60.90
4584;DHT22;2304;47.606;12.186;2024-01-30T03:13:24;3.30;60.70
4584;DHT22;2304;47.606;12.186;2024-01-30T03:18:26;3.30;60.60
4584;DHT22;2304;47.606;12.186;2024-01-30T03:23:29;3.30;61.10
4584;DHT22;2304;47.606;12.186;2024-01-30T03:28:32;3.30;60.90
4584;DHT22;2304;47.606;12.186;2024-01-30T03:33:34;3.30;61.30
4584;DHT22;2304;47.606;12.186;2024-01-30T03:38:39;3.40;61.20
4584;DHT22;2304;47.606;12.186;2024-01-30T03:43:41;3.20;61.00
4584;DHT22;2304;47.606;12.186;2024-01-30T03:48:42;3.10;61.60
4584;DHT22;2304;47.606;12.186;2024-01-30T03:53:46;3.10;61.70
4584;DHT22;2304;47.606;12.186;2024-01-30T03:58:47;3.10;61.40
4584;DHT22;2304;47.606;12.186;2024-01-30T04:03:49;3.10;61.10
4584;DHT22;2304;47.606;12.186;2024-01-30T04:08:52;3.00;61.40
4584;DHT22;2304;47.606;12.186;2024-01-30T04:13:54;2.90;61.60
4584;DHT22;2304;47.606;12.186;2024-01-30T04:18:56;2.90;61.20
4584;DHT22;2304;47.606;12.186;2024-01-30T04:23:59;2.90;61.50
4584;DHT22;2304;47.606;12.186;2024-01-30T04:29:01;2.90;61.50
4584;DHT22;2304;47.606;12.186;2024-01-30T04:39:12;2.90;61.50
4584;DHT22;2304;47.606;12.186;2024-01-30T04:44:14;2.70;62.60
4584;DHT22;2304;47.606;12.186;2024-01-30T04:49:16;2.70;62.60
4584;DHT22;2304;47.606;12.186;2024-01-30T04:54:19;2.80;61.90
4584;DHT22;2304;47.606;12.186;2024-01-30T04:59:21;2.80;61.90
4584;DHT22;2304;47.606;12.186;2024-01-30T05:04:23;2.80;61.90
4584;DHT22;2304;47.606;12.186;2024-01-30T05:09:26;3.10;62.60
4584;DHT22;2304;47.606;12.186;2024-01-30T05:14:28;2.80;62.30
4584;DHT22;2304;47.606;12.186;2024-01-30T05:19:29;2.80;61.60
4584;DHT22;2304;47.606;12.186;2024-01-30T05:24:33;2.60;61.20
4584;DHT22;2304;47.606;12.186;2024-01-30T05:29:35;2.90;61.80
4584;DHT22;2304;47.606;12.186;2024-01-30T05:34:37;2.90;61.50
4584;DHT22;2304;47.606;12.186;2024-01-30T05:39:40;2.70;62.20
4584;DHT22;2304;47.606;12.186;2024-01-30T05:44:42;2.70;62.40
4584;DHT22;2304;47.606;12.186;2024-01-30T05:49:44;2.70;62.50
4584;DHT22;2304;47.606;12.186;2024-01-30T05:54:47;2.70;62.20
4584;DHT22;2304;47.606;12.186;2024-01-30T05:59:49;2.70;62.10
4584;DHT22;2304;47.606;12.186;2024-01-30T06:04:52;2.60;61.90
4584;DHT22;2304;47.606;12.186;2024-01-30T06:09:55;2.60;62.10
4584;DHT22;2304;47.606;12.186;2024-01-30T06:14:57;2.60;62.60
4584;DHT22;2304;47.606;12.186;2024-01-30T06:19:59;2.60;62.70
4584;DHT22;2304;47.606;12.186;2024-01-30T06:25:03;2.70;63.90
4584;DHT22;2304;47.606;12.186;2024-01-30T06:30:06;2.70;65.20
4584;DHT22;2304;47.606;12.186;2024-01-30T06:35:08;2.60;65.20
4584;DHT22;2304;47.606;12.186;2024-01-30T06:40:12;2.60;65.00
4584;DHT22;2304;47.606;12.186;2024-01-30T06:45:14;2.60;64.30
4584;DHT22;2304;47.606;12.186;2024-01-30T06:50:16;2.50;64.20
4584;DHT22;2304;47.606;12.186;2024-01-30T06:55:19;2.50;64.40
4584;DHT22;2304;47.606;12.186;2024-01-30T07:00:23;2.50;63.40
4584;DHT22;2304;47.606;12.186;2024-01-30T07:05:25;2.60;63.40
4584;DHT22;2304;47.606;12.186;2024-01-30T07:10:28;2.60;62.80
4584;DHT22;2304;47.606;12.186;2024-01-30T07:15:32;2.80;63.00
4584;DHT22;2304;47.606;12.186;2024-01-30T07:20:34;2.50;63.30
4584;DHT22;2304;47.606;12.186;2024-01-30T07:25:37;2.50;63.70
4584;DHT22;2304;47.606;12.186;2024-01-30T07:30:39;2.60;63.80
4584;DHT22;2304;47.606;12.186;2024-01-30T07:35:41;2.50;65.00
4584;DHT22;2304;47.606;12.186;2024-01-30T07:40:44;2.50;65.30
4584;DHT22;2304;47.606;12.186;2024-01-30T07:45:46;2.50;65.60
4584;DHT22;2304;47.606;12.186;2024-01-30T07:50:47;2.50;65.40
4584;DHT22;2304;47.606;12.186;2024-01-30T07:55:51;2.50;64.70
4584;DHT22;2304;47.606;12.186;2024-01-30T08:00:52;2.40;64.80
4584;DHT22;2304;47.606;12.186;2024-01-30T08:05:54;2.50;64.60
4584;DHT22;2304;47.606;12.186;2024-01-30T08:10:57;2.40;64.40
4584;DHT22;2304;47.606;12.186;2024-01-30T08:15:59;2.40;64.70
4584;DHT22;2304;47.606;12.186;2024-01-30T08:21:01;2.40;65.00
4584;DHT22;2304;47.606;12.186;2024-01-30T08:26:04;2.50;65.40
4584;DHT22;2304;47.606;12.186;2024-01-30T08:31:06;2.60;65.80
4584;DHT22;2304;47.606;12.186;2024-01-30T08:36:08;3.10;68.30
4584;DHT22;2304;47.606;12.186;2024-01-30T08:41:11;3.60;66.20
4584;DHT22;2304;47.606;12.186;2024-01-30T08:46:17;4.00;65.20
4584;DHT22;2304;47.606;12.186;2024-01-30T08:51:19;4.50;64.90
4584;DHT22;2304;47.606;12.186;2024-01-30T08:56:22;5.00;63.70
4584;DHT22;2304;47.606;12.186;2024-01-30T09:01:25;5.30;62.20
4584;DHT22;2304;47.606;12.186;2024-01-30T09:06:27;5.90;61.20
4584;DHT22;2304;47.606;12.186;2024-01-30T09:11:30;5.90;59.20
4584;DHT22;2304;47.606;12.186;2024-01-30T09:16:32;6.20;59.50
4584;DHT22;2304;47.606;12.186;2024-01-30T09:21:34;6.60;58.20
4584;DHT22;2304;47.606;12.186;2024-01-30T09:26:37;6.50;57.10
4584;DHT22;2304;47.606;12.186;2024-01-30T09:31:39;6.60;56.90
4584;DHT22;2304;47.606;12.186;2024-01-30T09:36:44;6.70;57.70
4584;DHT22;2304;47.606;12.186;2024-01-30T09:41:49;7.00;56.70
4584;DHT22;2304;47.606;12.186;2024-01-30T09:46:55;7.30;56.10
4584;DHT22;2304;47.606;12.186;2024-01-30T09:51:59;7.60;55.50
4584;DHT22;2304;47.606;12.186;2024-01-30T09:57:03;7.80;54.70
4584;DHT22;2304;47.606;12.186;2024-01-30T10:02:05;7.90;54.00
4584;DHT22;2304;47.606;12.186;2024-01-30T10:07:07;8.00;53.00
4584;DHT22;2304;47.606;12.186;2024-01-30T10:12:12;8.20;53.10
4584;DHT22;2304;47.606;12.186;2024-01-30T10:17:14;8.40;51.70
4584;DHT22;2304;47.606;12.186;2024-01-30T10:22:16;8.60;51.80
4584;DHT22;2304;47.606;12.186;2024-01-30T10:27:25;8.80;51.80
4584;DHT22;2304;47.606;12.186;2024-01-30T10:32:27;8.80;50.30
4584;DHT22;2304;47.606;12.186;2024-01-30T10:37:30;9.10;50.70
4584;DHT22;2304;47.606;12.186;2024-01-30T10:42:36;9.20;49.20
4584;DHT22;2304;47.606;12.186;2024-01-30T10:47:40;9.60;50.90
4584;DHT22;2304;47.606;12.186;2024-01-30T10:52:42;9.50;48.90
4584;DHT22;2304;47.606;12.186;2024-01-30T10:57:46;9.50;48.30
4584;DHT22;2304;47.606;12.186;2024-01-30T11:02:48;9.40;47.70
4584;DHT22;2304;47.606;12.186;2024-01-30T11:07:50;9.60;47.40
4584;DHT22;2304;47.606;12.186;2024-01-30T11:12:53;9.90;48.10
4584;DHT22;2304;47.606;12.186;2024-01-30T11:17:56;10.10;47.40
4584;DHT22;2304;47.606;12.186;2024-01-30T11:22:59;10.30;46.90
4584;DHT22;2304;47.606;12.186;2024-01-30T11:28:04;10.70;45.70
4584;DHT22;2304;47.606;12.186;2024-01-30T11:33:07;10.90;43.60
4584;DHT22;2304;47.606;12.186;2024-01-30T11:38:10;11.10;44.30
4584;DHT22;2304;47.606;12.186;2024-01-30T11:43:13;11.20;44.30
4584;DHT22;2304;47.606;12.186;2024-01-30T11:48:15;11.40;43.80
4584;DHT22;2304;47.606;12.186;2024-01-30T11:53:17;11.60;44.40
4584;DHT22;2304;47.606;12.186;2024-01-30T11:58:20;11.70;42.50
4584;DHT22;2304;47.606;12.186;2024-01-30T12:03:26;11.80;42.20
4584;DHT22;2304;47.606;12.186;2024-01-30T12:08:28;11.80;42.30
4584;DHT22;2304;47.606;12.186;2024-01-30T12:13:31;12.00;41.80
4584;DHT22;2304;47.606;12.186;2024-01-30T12:18:33;12.20;42.50
4584;DHT22;2304;47.606;12.186;2024-01-30T12:23:35;12.40;40.80
4584;DHT22;2304;47.606;12.186;2024-01-30T12:28:47;12.60;40.80
4584;DHT22;2304;47.606;12.186;2024-01-30T12:33:49;12.70;40.70
4584;DHT22;2304;47.606;12.186;2024-01-30T12:38:51;12.60;40.70
4584;DHT22;2304;47.606;12.186;2024-01-30T12:43:54;12.80;41.40
4584;DHT22;2304;47.606;12.186;2024-01-30T12:48:56;12.90;41.20
4584;DHT22;2304;47.606;12.186;2024-01-30T12:53:58;12.90;40.30
4584;DHT22;2304;47.606;12.186;2024-01-30T12:59:01;12.90;40.60
4584;DHT22;2304;47.606;12.186;2024-01-30T13:04:03;13.00;41.00
4584;DHT22;2304;47.606;12.186;2024-01-30T13:09:05;13.10;40.10
4584;DHT22;2304;47.606;12.186;2024-01-30T13:14:08;13.10;40.70
4584;DHT22;2304;47.606;12.186;2024-01-30T13:19:10;13.10;40.10
4584;DHT22;2304;47.606;12.186;2024-01-30T13:24:12;13.00;40.70
4584;DHT22;2304;47.606;12.186;2024-01-30T13:29:15;13.10;41.20
4584;DHT22;2304;47.606;12.186;2024-01-30T13:34:17;13.20;40.20
4584;DHT22;2304;47.606;12.186;2024-01-30T13:39:19;13.40;39.60
4584;DHT22;2304;47.606;12.186;2024-01-30T13:44:22;13.20;39.70
4584;DHT22;2304;47.606;12.186;2024-01-30T13:49:24;13.30;40.60
4584;DHT22;2304;47.606;12.186;2024-01-30T13:54:26;13.40;40.10
4584;DHT22;2304;47.606;12.186;2024-01-30T13:59:29;13.40;40.10
4584;DHT22;2304;47.606;12.186;2024-01-30T14:04:31;13.50;40.80
4584;DHT22;2304;47.606;12.186;2024-01-30T14:09:33;13.40;39.30
4584;DHT22;2304;47.606;12.186;2024-01-30T14:14:36;13.30;40.10
4584;DHT22;2304;47.606;12.186;2024-01-30T14:19:38;13.30;39.80
4584;DHT22;2304;47.606;12.186;2024-01-30T14:24:40;13.30;40.50
4584;DHT22;2304;47.606;12.186;2024-01-30T14:29:43;13.20;39.90
4584;DHT22;2304;47.606;12.186;2024-01-30T14:34:45;13.20;40.30
4584;DHT22;2304;47.606;12.186;2024-01-30T14:39:47;13.20;39.70
4584;DHT22;2304;47.606;12.186;2024-01-30T14:44:51;13.20;39.80
4584;DHT22;2304;47.606;12.186;2024-01-30T14:49:52;13.20;41.30
4584;DHT22;2304;47.606;12.186;2024-01-30T14:54:54;13.20;41.70
4584;DHT22;2304;47.606;12.186;2024-01-30T14:59:57;13.20;41.80
4584;DHT22;2304;47.606;12.186;2024-01-30T15:04:59;13.30;42.20
4584;DHT22;2304;47.606;12.186;2024-01-30T15:10:02;12.90;42.40
4584;DHT22;2304;47.606;12.186;2024-01-30T15:15:07;12.70;42.60
4584;DHT22;2304;47.606;12.186;2024-01-30T15:20:09;12.60;42.80
4584;DHT22;2304;47.606;12.186;2024-01-30T15:25:11;12.40;42.90
4584;DHT22;2304;47.606;12.186;2024-01-30T15:30:14;12.20;43.10
4584;DHT22;2304;47.606;12.186;2024-01-30T15:35:16;12.00;43.50
4584;DHT22;2304;47.606;12.186;2024-01-30T15:40:18;11.70;43.90
4584;DHT22;2304;47.606;12.186;2024-01-30T15:45:22;11.60;44.70
4584;DHT22;2304;47.606;12.186;2024-01-30T15:50:26;11.40;45.00
4584;DHT22;2304;47.606;12.186;2024-01-30T15:55:28;11.20;45.60
4584;DHT22;2304;47.606;12.186;2024-01-30T16:00:31;11.10;45.90
4584;DHT22;2304;47.606;12.186;2024-01-30T16:05:33;10.90;46.40
4584;DHT22;2304;47.606;12.186;2024-01-30T16:10:35;10.70;46.70
4584;DHT22;2304;47.606;12.186;2024-01-30T16:15:38;10.50;47.10
4584;DHT22;2304;47.606;12.186;2024-01-30T16:20:43;10.30;48.20
4584;DHT22;2304;47.606;12.186;2024-01-30T16:25:45;10.20;48.40
4584;DHT22;2304;47.606;12.186;2024-01-30T16:30:48;10.20;48.60
4584;DHT22;2304;47.606;12.186;2024-01-30T16:35:50;9.80;49.10
4584;DHT22;2304;47.606;12.186;2024-01-30T16:40:52;9.70;50.20
4584;DHT22;2304;47.606;12.186;2024-01-30T16:45:55;9.60;50.30
4584;DHT22;2304;47.606;12.186;2024-01-30T16:50:57;9.40;50.30
4584;DHT22;2304;47.606;12.186;2024-01-30T16:55:59;9.50;51.10
4584;DHT22;2304;47.606;12.186;2024-01-30T17:01:02;9.20;51.20
4584;DHT22;2304;47.606;12.186;2024-01-30T17:06:05;9.10;51.70
4584;DHT22;2304;47.606;12.186;2024-01-30T17:11:08;9.00;51.60
4584;DHT22;2304;47.606;12.186;2024-01-30T17:16:11;8.90;52.00
4584;DHT22;2304;47.606;12.186;2024-01-30T17:21:16;8.70;53.00
4584;DHT22;2304;47.606;12.186;2024-01-30T17:26:18;8.40;54.50
4584;DHT22;2304;47.606;12.186;2024-01-30T17:31:22;8.40;54.10
4584;DHT22;2304;47.606;12.186;2024-01-30T17:36:24;8.30;54.00
4584;DHT22;2304;47.606;12.186;2024-01-30T17:41:26;8.30;53.90
4584;DHT22;2304;47.606;12.186;2024-01-30T17:46:29;8.10;54.20
4584;DHT22;2304;47.606;12.186;2024-01-30T17:51:31;8.10;54.40
4584;DHT22;2304;47.606;12.186;2024-01-30T17:56:33;8.00;54.60
4584;DHT22;2304;47.606;12.186;2024-01-30T18:01:36;7.90;54.80
4584;DHT22;2304;47.606;12.186;2024-01-30T18:06:38;7.80;55.70
4584;DHT22;2304;47.606;12.186;2024-01-30T18:11:39;7.70;55.70
4584;DHT22;2304;47.606;12.186;2024-01-30T18:16:43;7.70;55.70
4584;DHT22;2304;47.606;12.186;2024-01-30T18:21:45;7.60;55.80
4584;DHT22;2304;47.606;12.186;2024-01-30T18:26:47;7.50;56.00
4584;DHT22;2304;47.606;12.186;2024-01-30T18:31:50;7.40;57.30
4584;DHT22;2304;47.606;12.186;2024-01-30T18:36:52;7.20;57.60
4584;DHT22;2304;47.606;12.186;2024-01-30T18:41:53;7.10;58.40
4584;DHT22;2304;47.606;12.186;2024-01-30T18:46:56;7.00;58.10
4584;DHT22;2304;47.606;12.186;2024-01-30T18:51:58;6.90;58.70
4584;DHT22;2304;47.606;12.186;2024-01-30T18:57:00;6.80;58.80
4584;DHT22;2304;47.606;12.186;2024-01-30T19:02:04;6.70;59.10
4584;DHT22;2304;47.606;12.186;2024-01-30T19:07:05;6.70;59.10
4584;DHT22;2304;47.606;12.186;2024-01-30T19:12:07;6.60;59.80
4584;DHT22;2304;47.606;12.186;2024-01-30T19:17:10;6.50;59.60
4584;DHT22;2304;47.606;12.186;2024-01-30T19:22:12;6.40;60.10
4584;DHT22;2304;47.606;12.186;2024-01-30T19:27:15;6.30;60.60
4584;DHT22;2304;47.606;12.186;2024-01-30T19:32:18;6.20;60.60
4584;DHT22;2304;47.606;12.186;2024-01-30T19:37:20;6.50;61.70
4584;DHT22;2304;47.606;12.186;2024-01-30T19:42:25;6.10;61.80
4584;DHT22;2304;47.606;12.186;2024-01-30T19:47:28;6.20;61.40
4584;DHT22;2304;47.606;12.186;2024-01-30T19:52:30;6.20;61.00
4584;DHT22;2304;47.606;12.186;2024-01-30T19:57:32;6.20;60.30
4584;DHT22;2304;47.606;12.186;2024-01-30T20:02:36;6.20;60.40
4584;DHT22;2304;47.606;12.186;2024-01-30T20:07:37;6.10;60.70
4584;DHT22;2304;47.606;12.186;2024-01-30T20:12:39;6.00;60.80
4584;DHT22;2304;47.606;12.186;2024-01-30T20:17:43;6.00;60.80
4584;DHT22;2304;47.606;12.186;2024-01-30T20:22:45;5.90;61.20
4584;DHT22;2304;47.606;12.186;2024-01-30T20:27:48;5.80;61.60
4584;DHT22;2304;47.606;12.186;2024-01-30T20:32:51;5.70;62.50
4584;DHT22;2304;47.606;12.186;2024-01-30T20:37:53;5.70;62.60
4584;DHT22;2304;47.606;12.186;2024-01-30T20:42:54;5.60;62.90
4584;DHT22;2304;47.606;12.186;2024-01-30T20:47:58;5.50;62.90
4584;DHT22;2304;47.606;12.186;2024-01-30T20:53:01;5.50;63.10
4584;DHT22;2304;47.606;12.186;2024-01-30T20:58:04;5.40;63.10
4584;DHT22;2304;47.606;12.186;2024-01-30T21:03:07;5.50;62.70
4584;DHT22;2304;47.606;12.186;2024-01-30T21:08:09;5.50;62.10
4584;DHT22;2304;47.606;12.186;2024-01-30T21:13:12;5.50;62.50
4584;DHT22;2304;47.606;12.186;2024-01-30T21:18:15;5.50;62.70
4584;DHT22;2304;47.606;12.186;2024-01-30T21:23:17;5.50;62.30
4584;DHT22;2304;47.606;12.186;2024-01-30T21:28:19;5.30;62.50
4584;DHT22;2304;47.606;12.186;2024-01-30T21:33:23;5.20;63.20
4584;DHT22;2304;47.606;12.186;2024-01-30T21:38:25;5.10;63.50
4584;DHT22;2304;47.606;12.186;2024-01-30T21:43:27;5.20;63.60
4584;DHT22;2304;47.606;12.186;2024-01-30T21:48:30;5.10;63.60
4584;DHT22;2304;47.606;12.186;2024-01-30T21:53:32;5.10;63.60
4584;DHT22;2304;47.606;12.186;2024-01-30T21:58:34;5.10;63.50
4584;DHT22;2304;47.606;12.186;2024-01-30T22:03:37;5.20;63.80
4584;DHT22;2304;47.606;12.186;2024-01-30T22:08:42;5.30;63.30
4584;DHT22;2304;47.606;12.186;2024-01-30T22:13:44;5.10;63.30
4584;DHT22;2304;47.606;12.186;2024-01-30T22:18:47;5.10;64.00
4584;DHT22;2304;47.606;12.186;2024-01-30T22:23:49;5.10;63.80
4584;DHT22;2304;47.606;12.186;2024-01-30T22:28:51;5.10;63.90
4584;DHT22;2304;47.606;12.186;2024-01-30T22:33:57;5.10;63.50
4584;DHT22;2304;47.606;12.186;2024-01-30T22:39:02;5.10;63.10
4584;DHT22;2304;47.606;12.186;2024-01-30T22:44:05;5.10;63.20
4584;DHT22;2304;47.606;12.186;2024-01-30T22:49:08;5.00;63.40
4584;DHT22;2304;47.606;12.186;2024-01-30T22:54:10;5.00;64.00
4584;DHT22;2304;47.606;12.186;2024-01-30T22:59:11;5.00;63.60
4584;DHT22;2304;47.606;12.186;2024-01-30T23:04:15;5.00;64.00
4584;DHT22;2304;47.606;12.186;2024-01-30T23:09:16;5.00;63.80
4584;DHT22;2304;47.606;12.186;2024-01-30T23:14:18;4.80;64.00
4584;DHT22;2304;47.606;12.186;2024-01-30T23:19:21;4.70;64.50
4584;DHT22;2304;47.606;12.186;2024-01-30T23:24:23;4.70;65.30
4584;DHT22;2304;47.606;12.186;2024-01-30T23:29:25;4.80;64.90
4584;DHT22;2304;47.606;12.186;2024-01-30T23:34:28;4.70;65.30
4584;DHT22;2304;47.606;12.186;2024-01-30T23:39:31;4.80;64.80
4584;DHT22;2304;47.606;12.186;2024-01-30T23:44:34;4.80;64.80
4584;DHT22;2304;47.606;12.186;2024-01-30T23:49:37;4.80;64.60
4584;DHT22;2304;47.606;12.186;2024-01-30T23:54:39;4.80;64.40
4584;DHT22;2304;47.606;12.186;2024-01-30T23:59:41;4.80;63.90
